Time;durP1;ratioP1;P1;durP2;ratioP2;P2;SDS_P1;SDS_P2;PMS_P1;PMS_P2;Temp;Humidity;BMP_temperature;BMP_pressure;BME280_temperature;BME280_humidity;BME280_pressure;Samples;Min_cycle;Max_cycle;Signal;HPM_P1;HPM_P2
2023/12/02 00:02:15;;;;;;;52.83;32.47;;;3.50;99.90;;;;;;5053449;28;20507;-81
2023/12/02 00:04:41;;;;;;;51.00;31.42;;;3.70;99.90;;;;;;5079088;28;20396;-80
2023/12/02 00:07:07;;;;;;;48.30;30.50;;;3.80;99.90;;;;;;5076396;28;20047;-81
2023/12/02 00:09:34;;;;;;;49.58;30.65;;;3.80;99.90;;;;;;5064498;28;20056;-81
2023/12/02 00:12:00;;;;;;;51.92;31.67;;;3.20;99.90;;;;;;5073767;28;20183;-80
2023/12/02 00:14:25;;;;;;;48.95;31.02;;;3.30;99.90;;;;;;5070179;28;20210;-80
2023/12/02 00:16:51;;;;;;;48.42;30.83;;;3.10;99.90;;;;;;5062411;28;20040;-80
2023/12/02 00:19:17;;;;;;;47.50;29.92;;;3.40;99.90;;;;;;5056126;28;20044;-82
2023/12/02 00:21:42;;;;;;;50.17;30.60;;;3.70;99.90;;;;;;5072264;28;20511;-81
2023/12/02 00:24:08;;;;;;;53.22;32.10;;;3.90;99.90;;;;;;5085758;28;20039;-80
2023/12/02 00:26:34;;;;;;;53.65;31.55;;;3.30;99.90;;;;;;5053144;28;20033;-80
2023/12/02 00:28:59;;;;;;;49.85;30.23;;;3.80;99.90;;;;;;5067201;28;20051;-82
2023/12/02 00:31:25;;;;;;;50.03;31.30;;;3.40;99.90;;;;;;5054382;28;20098;-81
2023/12/02 00:33:51;;;;;;;46.95;30.15;;;3.80;99.90;;;;;;5041105;28;20090;-79
2023/12/02 00:36:16;;;;;;;46.22;29.75;;;3.20;99.90;;;;;;5074508;28;20125;-80
2023/12/02 00:38:42;;;;;;;46.33;28.92;;;3.10;99.90;;;;;;5054199;28;20036;-81
2023/12/02 00:41:10;;;;;;;50.22;30.92;;;3.10;99.90;;;;;;5087411;28;20070;-81
2023/12/02 00:43:36;;;;;;;50.10;30.45;;;3.70;99.90;;;;;;5087230;28;20048;-80
2023/12/02 00:46:01;;;;;;;48.28;30.58;;;3.20;99.90;;;;;;5047366;28;20164;-80
2023/12/02 00:48:27;;;;;;;49.15;30.13;;;3.20;99.90;;;;;;5061960;28;20042;-80
2023/12/02 00:50:53;;;;;;;45.10;30.30;;;3.50;99.90;;;;;;5052586;28;20033;-79
2023/12/02 00:53:19;;;;;;;46.85;30.85;;;3.80;99.90;;;;;;5076639;28;20103;-80
2023/12/02 00:55:45;;;;;;;55.97;32.38;;;3.20;99.90;;;;;;5067173;28;20024;-80
2023/12/02 00:58:11;;;;;;;52.35;31.23;;;3.80;99.90;;;;;;5077498;28;20157;-81
2023/12/02 01:00:36;;;;;;;51.50;31.83;;;4.40;99.90;;;;;;5063710;28;20053;-80
2023/12/02 01:03:02;;;;;;;48.05;31.88;;;3.80;99.90;;;;;;5050424;28;20032;-80
2023/12/02 01:05:28;;;;;;;50.03;31.52;;;3.80;99.90;;;;;;5049971;28;20047;-80
2023/12/02 01:07:53;;;;;;;57.85;33.90;;;3.20;99.90;;;;;;5053384;28;20036;-79
2023/12/02 01:10:19;;;;;;;53.60;31.52;;;3.90;99.90;;;;;;5044468;28;20041;-81
2023/12/02 01:12:45;;;;;;;50.90;31.50;;;3.90;99.90;;;;;;5055418;28;20106;-81
2023/12/02 01:15:11;;;;;;;52.63;31.80;;;3.20;99.90;;;;;;5036852;28;20101;-81
2023/12/02 01:17:36;;;;;;;50.50;32.00;;;2.80;99.90;;;;;;5070984;28;20522;-81
2023/12/02 01:20:03;;;;;;;47.38;30.13;;;4.10;99.90;;;;;;5075503;28;20085;-80
2023/12/02 01:22:28;;;;;;;51.67;31.55;;;3.20;99.90;;;;;;5071818;28;20129;-81
2023/12/02 01:24:54;;;;;;;47.75;30.35;;;3.90;99.90;;;;;;5082424;28;20071;-80
2023/12/02 01:27:20;;;;;;;49.83;30.38;;;3.30;99.90;;;;;;5030112;28;20135;-81
2023/12/02 01:29:45;;;;;;;53.38;32.08;;;3.20;99.90;;;;;;5039857;28;20508;-81
2023/12/02 01:32:11;;;;;;;54.05;32.35;;;3.90;99.90;;;;;;5027761;28;20040;-80
2023/12/02 01:34:37;;;;;;;54.38;32.63;;;3.60;99.90;;;;;;5055985;28;20511;-81
2023/12/02 01:37:02;;;;;;;53.95;31.77;;;3.10;99.90;;;;;;5054092;28;20457;-80
2023/12/02 01:39:29;;;;;;;59.58;34.03;;;3.80;99.90;;;;;;5057857;28;20036;-81
2023/12/02 01:41:55;;;;;;;54.95;32.20;;;3.20;99.90;;;;;;5045524;28;20035;-81
2023/12/02 01:44:21;;;;;;;55.80;33.05;;;3.70;99.90;;;;;;5054600;28;20385;-81
2023/12/02 01:46:46;;;;;;;50.20;30.13;;;3.20;99.90;;;;;;5046515;28;20451;-80
2023/12/02 01:49:13;;;;;;;53.63;32.28;;;3.30;99.90;;;;;;5062892;28;20043;-80
2023/12/02 01:51:39;;;;;;;53.67;32.70;;;3.50;99.90;;;;;;5058605;28;20036;-81
2023/12/02 01:54:05;;;;;;;59.67;32.78;;;3.90;99.90;;;;;;5070710;28;20040;-82
2023/12/02 01:56:30;;;;;;;52.30;32.08;;;3.10;99.90;;;;;;5051528;28;20117;-80
2023/12/02 01:58:57;;;;;;;52.85;32.42;;;3.20;99.90;;;;;;5072697;28;20499;-81
2023/12/02 02:01:22;;;;;;;58.70;33.60;;;3.20;99.90;;;;;;5040509;28;20040;-82
2023/12/02 02:03:49;;;;;;;56.38;33.25;;;3.90;99.90;;;;;;5042194;28;20492;-81
2023/12/02 02:06:15;;;;;;;61.00;34.42;;;3.50;99.90;;;;;;5063180;28;20129;-82
2023/12/02 02:08:41;;;;;;;56.42;32.78;;;3.80;99.90;;;;;;5046175;28;20122;-80
2023/12/02 02:11:07;;;;;;;60.83;33.90;;;3.20;99.90;;;;;;5071021;28;20054;-81
2023/12/02 02:13:33;;;;;;;55.33;33.38;;;3.20;99.90;;;;;;5069418;28;20110;-81
2023/12/02 02:15:59;;;;;;;57.75;34.00;;;3.90;99.90;;;;;;5052986;28;20142;-80
2023/12/02 02:18:25;;;;;;;57.83;33.85;;;3.30;99.90;;;;;;5067432;28;20046;-80
2023/12/02 02:20:52;;;;;;;54.95;33.72;;;3.10;99.90;;;;;;5061122;28;20061;-80
2023/12/02 02:23:22;;;;;;;58.15;33.22;;;3.20;99.90;;;;;;5063909;28;20032;-81
2023/12/02 02:25:51;;;;;;;52.60;32.15;;;3.90;99.90;;;;;;5085970;28;20066;-81
2023/12/02 02:28:24;;;;;;;51.28;32.28;;;3.80;99.90;;;;;;5073469;28;20495;-79
2023/12/02 02:30:50;;;;;;;51.10;31.77;;;3.80;99.90;;;;;;5069544;28;20032;-81
2023/12/02 02:33:17;;;;;;;56.63;33.28;;;3.50;99.90;;;;;;5093330;28;20502;-81
2023/12/02 02:35:47;;;;;;;54.85;31.98;;;3.80;99.90;;;;;;5090109;28;20491;-81
2023/12/02 02:38:12;;;;;;;54.42;32.58;;;3.70;99.90;;;;;;5057733;28;20118;-80
2023/12/02 02:40:44;;;;;;;49.95;31.75;;;3.70;99.90;;;;;;5067036;28;20059;-81
2023/12/02 02:43:11;;;;;;;51.00;30.33;;;3.90;99.90;;;;;;5075418;28;20040;-79
2023/12/02 02:45:37;;;;;;;48.78;29.58;;;4.30;99.90;;;;;;5053591;28;20511;-81
2023/12/02 02:48:02;;;;;;;51.85;31.00;;;3.70;99.90;;;;;;5074324;28;20044;-81
2023/12/02 02:50:28;;;;;;;51.80;32.30;;;3.30;99.90;;;;;;5069244;28;20042;-81
2023/12/02 02:52:54;;;;;;;52.72;31.58;;;3.90;99.90;;;;;;5072332;28;20495;-81
2023/12/02 02:55:20;;;;;;;56.35;33.63;;;3.70;99.90;;;;;;5076876;28;20094;-80
2023/12/02 02:57:45;;;;;;;50.80;30.33;;;3.10;99.90;;;;;;5071332;28;20036;-82
2023/12/02 03:00:12;;;;;;;51.97;32.28;;;3.50;99.90;;;;;;5058829;28;20036;-80
2023/12/02 03:02:41;;;;;;;51.75;31.05;;;3.10;99.90;;;;;;5079605;28;20044;-82
2023/12/02 03:05:07;;;;;;;55.05;32.50;;;3.30;99.90;;;;;;5073209;28;20043;-82
2023/12/02 03:07:32;;;;;;;50.90;31.10;;;3.80;99.90;;;;;;5057718;28;20105;-82
2023/12/02 03:09:59;;;;;;;53.65;30.85;;;3.40;99.90;;;;;;5048577;28;20040;-82
2023/12/02 03:12:26;;;;;;;47.53;29.42;;;3.30;99.90;;;;;;5073129;28;20082;-82
2023/12/02 03:14:53;;;;;;;52.65;31.75;;;3.10;99.90;;;;;;5074430;28;20515;-81
2023/12/02 03:17:18;;;;;;;50.53;31.15;;;3.00;99.90;;;;;;5058545;28;20040;-81
2023/12/02 03:19:46;;;;;;;50.70;30.08;;;3.00;99.90;;;;;;5063879;28;20052;-80
2023/12/02 03:22:11;;;;;;;52.15;31.42;;;3.70;99.90;;;;;;5052530;28;20115;-82
2023/12/02 03:24:37;;;;;;;57.40;33.35;;;3.10;99.90;;;;;;5049862;28;20135;-82
2023/12/02 03:27:03;;;;;;;53.90;32.03;;;3.30;99.90;;;;;;5057681;28;20044;-82
2023/12/02 03:29:29;;;;;;;57.45;32.75;;;3.10;99.90;;;;;;5054298;28;20032;-82
2023/12/02 03:31:55;;;;;;;53.78;32.40;;;3.70;99.90;;;;;;5051867;28;20109;-82
2023/12/02 03:34:20;;;;;;;59.60;32.50;;;3.50;99.90;;;;;;5055796;28;20041;-82
2023/12/02 03:36:46;;;;;;;49.65;29.88;;;3.70;99.90;;;;;;5036413;28;20082;-81
2023/12/02 03:39:12;;;;;;;50.63;31.15;;;3.60;99.90;;;;;;5073726;28;20346;-80
2023/12/02 03:41:42;;;;;;;52.03;29.90;;;3.40;99.90;;;;;;5027235;28;20043;-80
2023/12/02 03:44:09;;;;;;;52.35;30.92;;;3.10;99.90;;;;;;5087496;28;20048;-80
2023/12/02 03:46:35;;;;;;;53.97;30.98;;;3.10;99.90;;;;;;5082066;28;20078;-80
2023/12/02 03:49:01;;;;;;;49.50;30.50;;;3.60;99.90;;;;;;5058177;28;20384;-81
2023/12/02 03:51:27;;;;;;;53.33;31.02;;;3.60;99.90;;;;;;5060145;28;20045;-82
2023/12/02 03:53:53;;;;;;;49.40;30.48;;;3.50;99.90;;;;;;5072400;28;20038;-81
2023/12/02 03:56:20;;;;;;;50.78;31.02;;;3.10;99.90;;;;;;5072168;28;20040;-82
2023/12/02 03:58:46;;;;;;;56.28;31.88;;;3.60;99.90;;;;;;5081105;28;20040;-81
2023/12/02 04:01:15;;;;;;;51.08;30.67;;;3.60;99.90;;;;;;5058740;28;20042;-79
2023/12/02 04:03:42;;;;;;;50.75;30.25;;;3.70;99.90;;;;;;5068965;28;20085;-81
2023/12/02 04:06:08;;;;;;;52.17;31.27;;;3.10;99.90;;;;;;5076472;28;20055;-81
2023/12/02 04:08:34;;;;;;;49.53;30.00;;;3.60;99.90;;;;;;5054068;28;20047;-82
2023/12/02 04:11:00;;;;;;;52.50;31.05;;;3.70;99.90;;;;;;5071378;28;20480;-80
2023/12/02 04:13:26;;;;;;;54.78;31.10;;;3.60;99.90;;;;;;5053747;28;20091;-82
2023/12/02 04:15:51;;;;;;;50.15;31.17;;;3.20;99.90;;;;;;5070330;28;20040;-82
2023/12/02 04:18:17;;;;;;;43.75;29.25;;;3.80;99.90;;;;;;5049043;28;20038;-81
2023/12/02 04:20:43;;;;;;;51.85;29.83;;;2.90;99.90;;;;;;5070953;28;20047;-82
2023/12/02 04:23:09;;;;;;;45.05;29.08;;;2.90;99.90;;;;;;5066358;28;20036;-82
2023/12/02 04:25:34;;;;;;;50.15;30.33;;;3.00;99.90;;;;;;5046010;28;20051;-83
2023/12/02 04:28:01;;;;;;;47.53;29.13;;;3.00;99.90;;;;;;5051839;28;20143;-83
2023/12/02 04:30:27;;;;;;;47.33;29.40;;;3.40;99.90;;;;;;5063726;28;20066;-82
2023/12/02 04:32:53;;;;;;;44.75;28.73;;;3.10;99.90;;;;;;5085962;28;20039;-82
2023/12/02 04:35:18;;;;;;;44.50;29.00;;;2.80;99.90;;;;;;5058869;28;20036;-81
2023/12/02 04:37:44;;;;;;;48.58;29.02;;;2.80;99.90;;;;;;5047292;28;20438;-82
2023/12/02 04:40:11;;;;;;;45.97;28.75;;;3.40;99.90;;;;;;5055007;28;20378;-81
2023/12/02 04:42:41;;;;;;;51.55;31.40;;;3.20;99.90;;;;;;5068135;28;20052;-81
2023/12/02 04:45:08;;;;;;;50.20;30.23;;;3.00;99.90;;;;;;5056739;28;20045;-81
2023/12/02 04:47:37;;;;;;;48.70;30.00;;;3.40;99.90;;;;;;5077354;28;20045;-82
2023/12/02 04:50:04;;;;;;;47.05;28.98;;;3.00;99.90;;;;;;5072832;28;20101;-81
2023/12/02 04:52:30;;;;;;;53.60;30.10;;;3.20;99.90;;;;;;5089170;28;20036;-82
2023/12/02 04:54:56;;;;;;;50.92;29.67;;;2.80;99.90;;;;;;5073605;28;20097;-81
2023/12/02 04:57:22;;;;;;;50.80;31.30;;;3.00;99.90;;;;;;5048507;28;20040;-82
2023/12/02 04:59:48;;;;;;;52.95;31.08;;;3.20;99.90;;;;;;5080783;28;20054;-82
2023/12/02 05:02:14;;;;;;;47.33;28.27;;;3.30;99.90;;;;;;5065664;28;20045;-83
2023/12/02 05:04:40;;;;;;;54.55;31.35;;;2.90;99.90;;;;;;5060272;28;20036;-82
2023/12/02 05:07:06;;;;;;;52.03;31.20;;;3.40;99.90;;;;;;5065973;28;20088;-80
2023/12/02 05:09:32;;;;;;;53.83;31.50;;;2.80;99.90;;;;;;5071712;28;21680;-80
2023/12/02 05:11:58;;;;;;;52.05;30.73;;;3.30;99.90;;;;;;5071621;28;20048;-81
2023/12/02 05:14:23;;;;;;;46.95;29.05;;;2.80;99.90;;;;;;5069838;28;20074;-81
2023/12/02 05:16:49;;;;;;;47.90;30.08;;;2.60;99.90;;;;;;5072914;28;20047;-81
2023/12/02 05:19:15;;;;;;;44.92;28.58;;;2.80;99.90;;;;;;5051478;28;20040;-81
2023/12/02 05:21:41;;;;;;;47.53;29.08;;;3.30;99.90;;;;;;5070688;28;20046;-81
2023/12/02 05:24:08;;;;;;;51.17;29.42;;;3.10;99.90;;;;;;5064631;28;20052;-81
2023/12/02 05:26:33;;;;;;;51.05;30.25;;;2.80;99.90;;;;;;5086589;28;20398;-81
2023/12/02 05:29:05;;;;;;;46.47;27.80;;;3.10;99.90;;;;;;5059464;28;20090;-81
2023/12/02 05:31:31;;;;;;;50.50;30.23;;;3.10;99.90;;;;;;5073296;28;20076;-82
2023/12/02 05:33:58;;;;;;;48.35;29.85;;;2.90;99.90;;;;;;5055201;28;20538;-82
2023/12/02 05:36:24;;;;;;;49.72;29.75;;;2.80;99.90;;;;;;5052873;28;20400;-83
2023/12/02 05:38:49;;;;;;;52.78;31.10;;;3.10;99.90;;;;;;5051368;28;20040;-81
2023/12/02 05:41:15;;;;;;;52.33;30.90;;;2.90;99.90;;;;;;5072141;28;20043;-82
2023/12/02 05:43:41;;;;;;;53.78;30.60;;;3.10;99.90;;;;;;5076542;28;20447;-83
2023/12/02 05:46:07;;;;;;;52.08;31.02;;;2.90;99.90;;;;;;5080006;28;20135;-83
2023/12/02 05:48:32;;;;;;;50.25;31.25;;;3.20;99.90;;;;;;5051133;28;20430;-77
2023/12/02 05:51:03;;;;;;;52.92;31.40;;;2.80;99.90;;;;;;5068266;28;20595;-82
2023/12/02 05:53:31;;;;;;;53.92;31.92;;;2.40;99.90;;;;;;5062549;28;20434;-84
2023/12/02 05:55:57;;;;;;;53.05;32.00;;;2.40;99.90;;;;;;5083595;28;20052;-84
2023/12/02 05:58:24;;;;;;;53.38;32.80;;;3.20;99.90;;;;;;5063581;28;20038;-83
2023/12/02 06:00:50;;;;;;;55.22;32.28;;;2.50;99.90;;;;;;5070769;28;20133;-84
2023/12/02 06:03:16;;;;;;;53.13;31.55;;;2.50;99.90;;;;;;5051721;28;20500;-83
2023/12/02 06:05:41;;;;;;;51.35;31.40;;;3.30;99.90;;;;;;5046125;28;20044;-83
2023/12/02 06:08:07;;;;;;;55.85;32.03;;;3.10;99.90;;;;;;5084249;28;20123;-83
2023/12/02 06:10:33;;;;;;;55.70;32.90;;;2.40;99.90;;;;;;5066549;28;20048;-81
2023/12/02 06:12:59;;;;;;;51.92;31.33;;;2.60;99.90;;;;;;5079688;28;20055;-83
2023/12/02 06:15:24;;;;;;;59.00;33.30;;;2.10;99.90;;;;;;5037071;28;20975;-83
2023/12/02 06:17:50;;;;;;;60.75;32.92;;;2.70;99.90;;;;;;5073321;28;20047;-80
2023/12/02 06:20:16;;;;;;;52.10;31.73;;;3.00;99.90;;;;;;5053393;28;20481;-81
2023/12/02 06:22:42;;;;;;;57.20;33.10;;;3.00;99.90;;;;;;5083282;28;20128;-82
2023/12/02 06:25:08;;;;;;;53.35;31.92;;;2.20;99.90;;;;;;5073980;28;20071;-82
2023/12/02 06:27:33;;;;;;;54.53;32.10;;;3.00;99.90;;;;;;5058841;28;20443;-82
2023/12/02 06:30:00;;;;;;;53.28;31.90;;;2.70;99.90;;;;;;5089881;28;20464;-80
2023/12/02 06:32:25;;;;;;;51.22;31.65;;;2.60;99.90;;;;;;5062014;28;20083;-81
2023/12/02 06:34:51;;;;;;;56.05;33.05;;;2.30;99.90;;;;;;5059930;28;20075;-82
2023/12/02 06:37:17;;;;;;;48.75;30.77;;;3.20;99.90;;;;;;5067998;28;20043;-82
2023/12/02 06:39:42;;;;;;;55.15;33.17;;;2.40;99.90;;;;;;5057061;28;20032;-81
2023/12/02 06:42:08;;;;;;;55.63;31.88;;;2.90;99.90;;;;;;5069051;28;20044;-81
2023/12/02 06:44:34;;;;;;;50.83;32.40;;;2.30;99.90;;;;;;5051886;28;20041;-82
2023/12/02 06:46:59;;;;;;;52.10;32.22;;;2.90;99.90;;;;;;5036901;28;20043;-81
2023/12/02 06:49:25;;;;;;;49.10;31.85;;;2.70;99.90;;;;;;5052688;28;20362;-82
2023/12/02 06:51:51;;;;;;;48.42;29.75;;;2.60;99.90;;;;;;5052821;28;20119;-83
2023/12/02 06:54:17;;;;;;;52.58;31.35;;;3.10;99.90;;;;;;5073663;28;20506;-81
2023/12/02 06:56:42;;;;;;;49.95;30.27;;;2.60;99.90;;;;;;5046250;28;20040;-82
2023/12/02 06:59:08;;;;;;;53.50;31.55;;;2.80;99.90;;;;;;5056660;28;20042;-83
2023/12/02 07:01:34;;;;;;;51.70;31.40;;;3.00;99.90;;;;;;5070605;28;20075;-79
2023/12/02 07:04:01;;;;;;;49.63;30.63;;;2.70;99.90;;;;;;5051954;28;20101;-86
2023/12/02 07:06:28;;;;;;;50.63;30.45;;;3.20;99.90;;;;;;5059561;28;20155;-83
2023/12/02 07:08:55;;;;;;;47.17;30.23;;;2.50;99.90;;;;;;5061492;28;20094;-82
2023/12/02 07:11:21;;;;;;;45.15;28.55;;;3.40;99.90;;;;;;5109444;28;20036;-83
2023/12/02 07:13:47;;;;;;;49.10;29.77;;;2.50;99.90;;;;;;5076302;28;20135;-83
2023/12/02 07:16:13;;;;;;;47.08;29.33;;;2.20;99.90;;;;;;5088866;28;20036;-84
2023/12/02 07:18:39;;;;;;;48.25;31.33;;;2.40;99.90;;;;;;5091166;28;20043;-81
2023/12/02 07:21:07;;;;;;;49.25;30.08;;;2.40;99.90;;;;;;5081550;28;20190;-81
2023/12/02 07:23:33;;;;;;;46.45;29.77;;;2.80;99.90;;;;;;5070493;28;20044;-80
2023/12/02 07:26:01;;;;;;;46.75;29.80;;;2.90;99.90;;;;;;5080664;28;20078;-81
2023/12/02 07:28:26;;;;;;;49.53;30.42;;;3.00;99.90;;;;;;5070454;28;20056;-81
2023/12/02 07:30:52;;;;;;;46.20;28.70;;;2.60;99.90;;;;;;5043058;28;20051;-81
2023/12/02 07:33:19;;;;;;;47.65;29.10;;;2.50;99.90;;;;;;5076272;28;20055;-82
2023/12/02 07:35:44;;;;;;;50.70;29.73;;;3.00;99.90;;;;;;5089822;28;20028;-83
2023/12/02 07:38:10;;;;;;;44.78;27.90;;;2.40;99.90;;;;;;5070562;28;20586;-82
2023/12/02 07:40:36;;;;;;;51.47;30.42;;;2.70;99.90;;;;;;5046838;28;20051;-82
2023/12/02 07:43:02;;;;;;;47.10;28.90;;;3.10;99.90;;;;;;5075285;28;20051;-82
2023/12/02 07:45:31;;;;;;;50.58;30.55;;;3.00;99.90;;;;;;5092710;28;20043;-81
2023/12/02 07:47:57;;;;;;;50.22;31.50;;;2.70;99.90;;;;;;5048496;28;20042;-83
2023/12/02 07:50:23;;;;;;;45.05;29.00;;;2.60;99.90;;;;;;5093232;28;20040;-83
2023/12/02 07:52:50;;;;;;;49.80;30.08;;;2.90;99.90;;;;;;5076429;28;20039;-82
2023/12/02 07:55:16;;;;;;;46.17;29.80;;;3.10;99.90;;;;;;5058881;28;20131;-82
2023/12/02 07:57:41;;;;;;;47.35;29.27;;;3.00;99.90;;;;;;5051581;28;20128;-81
2023/12/02 08:00:08;;;;;;;49.20;29.50;;;3.10;99.90;;;;;;5075807;28;20044;-82
2023/12/02 08:02:35;;;;;;;46.65;28.77;;;2.80;99.90;;;;;;5063333;28;20083;-83
2023/12/02 08:05:00;;;;;;;46.33;28.30;;;2.50;99.90;;;;;;5055932;28;20429;-69
2023/12/02 08:07:28;;;;;;;46.97;28.95;;;3.30;99.90;;;;;;5084842;28;20108;-84
2023/12/02 08:09:53;;;;;;;45.78;29.02;;;2.60;99.90;;;;;;5039157;28;20062;-83
2023/12/02 08:12:19;;;;;;;44.03;28.08;;;3.40;99.90;;;;;;5045304;28;20528;-85
2023/12/02 08:14:45;;;;;;;46.60;29.15;;;3.20;99.90;;;;;;5073428;28;20037;-84
2023/12/02 08:17:11;;;;;;;47.35;29.75;;;2.60;99.90;;;;;;5055757;28;20178;-83
2023/12/02 08:19:37;;;;;;;47.00;28.88;;;2.90;99.90;;;;;;5069199;28;20047;-86
2023/12/02 08:22:03;;;;;;;47.00;29.83;;;3.40;99.90;;;;;;5046128;28;20028;-84
2023/12/02 08:24:33;;;;;;;47.65;30.10;;;2.80;99.90;;;;;;5090309;28;20039;-85
2023/12/02 08:26:59;;;;;;;45.72;30.05;;;3.20;99.90;;;;;;5069572;28;20055;-86
2023/12/02 08:29:25;;;;;;;48.55;30.58;;;3.00;99.90;;;;;;5072380;28;20123;-85
2023/12/02 08:31:51;;;;;;;47.05;30.85;;;3.30;99.90;;;;;;5092024;28;20127;-87
2023/12/02 08:34:16;;;;;;;48.08;31.02;;;3.50;99.90;;;;;;5037549;28;20503;-84
2023/12/02 08:36:43;;;;;;;43.88;28.90;;;3.50;99.90;;;;;;5034109;28;20044;-81
2023/12/02 08:39:09;;;;;;;44.65;29.73;;;3.50;99.90;;;;;;5089669;28;20046;-82
2023/12/02 08:41:36;;;;;;;45.78;30.98;;;3.50;99.90;;;;;;5054842;28;20063;-85
2023/12/02 08:44:02;;;;;;;45.95;29.30;;;3.00;99.90;;;;;;5065372;28;20044;-84
2023/12/02 08:46:28;;;;;;;46.97;30.23;;;3.50;99.90;;;;;;5067957;28;20040;-85
2023/12/02 08:48:54;;;;;;;43.85;28.92;;;3.10;99.90;;;;;;5068515;28;20032;-82
2023/12/02 08:51:21;;;;;;;44.63;29.23;;;3.70;99.90;;;;;;5071923;28;20437;-84
2023/12/02 08:53:51;;;;;;;42.95;28.63;;;3.70;99.90;;;;;;5053233;28;20054;-85
2023/12/02 08:56:17;;;;;;;47.22;30.15;;;3.90;99.90;;;;;;5088120;28;20380;-83
2023/12/02 08:58:43;;;;;;;47.15;30.83;;;2.90;99.90;;;;;;5070248;28;20215;-81
2023/12/02 09:01:09;;;;;;;51.03;31.08;;;3.80;99.90;;;;;;5068350;28;20045;-84
2023/12/02 09:03:34;;;;;;;45.03;30.08;;;3.10;99.90;;;;;;5048073;28;20040;-84
2023/12/02 09:06:03;;;;;;;44.08;28.85;;;3.00;99.90;;;;;;5084947;28;20480;-83
2023/12/02 09:08:28;;;;;;;43.58;28.88;;;3.10;99.90;;;;;;5053335;28;20044;-84
2023/12/02 09:10:54;;;;;;;48.70;31.38;;;3.10;99.90;;;;;;5092684;28;20047;-84
2023/12/02 09:13:40;;;;;;;46.42;30.85;;;3.90;99.90;;;;;;5075352;28;20123;-85
2023/12/02 09:16:20;;;;;;;46.60;30.75;;;3.80;99.90;;;;;;5070231;28;20113;-83
2023/12/02 09:18:46;;;;;;;48.65;32.45;;;4.00;99.90;;;;;;5089229;28;20534;-82
2023/12/02 09:21:34;;;;;;;47.80;32.03;;;3.80;99.90;;;;;;5057148;28;20041;-82
2023/12/02 09:24:05;;;;;;;44.78;29.25;;;3.60;99.90;;;;;;5064584;28;20048;-83
2023/12/02 09:26:40;;;;;;;44.03;28.27;;;3.40;99.90;;;;;;5084063;28;20411;-82
2023/12/02 09:29:06;;;;;;;43.20;29.25;;;4.10;99.90;;;;;;5086248;28;20499;-82
2023/12/02 09:31:32;;;;;;;42.90;29.20;;;3.90;99.90;;;;;;5054751;28;20055;-83
2023/12/02 09:34:04;;;;;;;44.45;30.20;;;4.40;99.90;;;;;;5060088;28;20043;-81
2023/12/02 09:36:36;;;;;;;45.50;30.55;;;4.80;99.90;;;;;;5062406;28;20460;-82
2023/12/02 09:39:18;;;;;;;41.92;28.75;;;4.10;99.90;;;;;;5053363;28;20043;-82
2023/12/02 09:41:49;;;;;;;40.63;28.33;;;4.50;99.90;;;;;;5071576;28;20365;-82
2023/12/02 09:44:35;;;;;;;40.38;28.33;;;3.90;99.90;;;;;;5079844;28;20071;-81
2023/12/02 09:47:01;;;;;;;45.10;29.70;;;4.70;99.90;;;;;;5067321;28;20048;-83
2023/12/02 09:49:39;;;;;;;42.15;30.75;;;4.20;99.90;;;;;;5071312;28;20063;-83
2023/12/02 09:52:19;;;;;;;41.60;27.58;;;4.00;99.90;;;;;;5059969;28;20032;-79
2023/12/02 09:55:10;;;;;;;38.92;28.15;;;4.00;99.90;;;;;;5070804;28;20038;-83
2023/12/02 09:57:55;;;;;;;37.20;27.00;;;4.10;99.90;;;;;;5064648;28;20417;-83
2023/12/02 10:00:50;;;;;;;37.15;27.65;;;4.80;99.90;;;;;;5078777;28;20036;-84
2023/12/02 10:03:28;;;;;;;;;;;4.20;99.90;;;;;;5066046;28;20143;-82
2023/12/02 10:06:16;;;;;;;37.58;26.95;;;4.30;99.90;;;;;;5070685;28;19920;-81
2023/12/02 10:09:12;;;;;;;36.40;26.40;;;4.20;99.90;;;;;;5066702;28;20067;-83
2023/12/02 10:11:47;;;;;;;36.33;26.17;;;4.90;99.90;;;;;;5058896;28;20040;-82
2023/12/02 10:14:16;;;;;;;36.08;25.67;;;5.10;99.90;;;;;;5053281;28;20052;-83
2023/12/02 10:16:46;;;;;;;39.78;27.17;;;5.00;99.90;;;;;;5065831;28;20593;-82
2023/12/02 10:19:49;;;;;;;33.67;25.60;;;4.50;99.90;;;;;;5086522;28;20035;-82
2023/12/02 10:22:18;;;;;;;35.35;26.17;;;5.30;99.90;;;;;;5069957;28;20070;-84
2023/12/02 10:25:03;;;;;;;37.50;27.13;;;4.50;99.90;;;;;;5077462;28;20043;-84
2023/12/02 10:27:39;;;;;;;35.15;25.90;;;4.50;99.90;;;;;;5064631;28;20041;-82
2023/12/02 10:30:18;;;;;;;37.40;25.77;;;5.10;99.90;;;;;;5054102;28;20074;-84
2023/12/02 10:32:53;;;;;;;51.15;37.42;;;4.80;99.90;;;;;;5067044;28;20439;-81
2023/12/02 10:35:40;;;;;;;36.03;26.75;;;5.40;99.90;;;;;;5074327;28;20040;-84
2023/12/02 10:38:18;;;;;;;34.00;25.13;;;5.30;99.90;;;;;;5076261;28;20048;-84
2023/12/02 10:41:11;;;;;;;36.22;26.63;;;5.50;99.90;;;;;;5065743;28;20033;-84
2023/12/02 10:44:03;;;;;;;32.67;25.30;;;5.50;99.90;;;;;;5093674;28;20047;-82
2023/12/02 10:46:31;;;;;;;36.50;27.13;;;4.90;99.90;;;;;;5091980;28;20427;-85
2023/12/02 10:48:58;;;;;;;34.17;25.73;;;5.20;99.90;;;;;;5058946;28;20040;-84
2023/12/02 10:51:26;;;;;;;33.83;26.77;;;5.50;99.90;;;;;;5075555;28;20071;-82
2023/12/02 10:53:57;;;;;;;35.05;26.40;;;5.10;99.90;;;;;;5056839;28;20728;-83
2023/12/02 10:56:26;;;;;;;33.35;25.58;;;5.10;99.90;;;;;;5078309;28;20040;-83
2023/12/02 10:58:53;;;;;;;32.90;25.90;;;5.10;99.90;;;;;;5088526;28;20036;-83
2023/12/02 11:01:41;;;;;;;34.25;27.17;;;6.00;99.90;;;;;;5076245;28;20488;-83
2023/12/02 11:04:31;;;;;;;37.60;29.42;;;6.10;99.90;;;;;;5077205;28;20047;-83
2023/12/02 11:07:09;;;;;;;37.80;28.85;;;6.30;99.90;;;;;;5061426;28;20107;-82
2023/12/02 11:09:47;;;;;;;34.80;27.55;;;6.10;99.90;;;;;;5072175;28;20059;-81
2023/12/02 11:12:41;;;;;;;35.97;27.60;;;5.80;99.90;;;;;;5069149;28;20037;-82
2023/12/02 11:15:11;;;;;;;35.63;27.25;;;6.10;99.90;;;;;;5074970;28;20048;-82
2023/12/02 11:18:03;;;;;;;33.17;25.65;;;5.50;99.90;;;;;;5059120;28;20036;-77
2023/12/02 11:20:50;;;;;;;31.30;25.40;;;5.40;99.90;;;;;;5067246;28;20044;-78
2023/12/02 11:23:47;;;;;;;32.55;26.23;;;5.60;99.90;;;;;;5068672;28;20048;-78
2023/12/02 11:26:37;;;;;;;30.17;24.08;;;5.70;99.90;;;;;;5089246;28;21505;-78
2023/12/02 11:29:32;;;;;;;30.13;24.15;;;5.60;99.90;;;;;;5074736;28;20036;-79
2023/12/02 11:32:15;;;;;;;32.10;23.02;;;5.60;99.90;;;;;;5068110;28;20072;-80
2023/12/02 11:34:45;;;;;;;28.08;22.50;;;6.50;99.90;;;;;;5073419;28;20474;-78
2023/12/02 11:37:17;;;;;;;28.42;22.25;;;6.40;99.90;;;;;;5079243;28;20094;-81
2023/12/02 11:40:10;;;;;;;24.70;20.30;;;6.10;99.90;;;;;;5056076;28;20067;-75
2023/12/02 11:42:53;;;;;;;27.17;21.27;;;5.90;99.90;;;;;;5095163;28;20497;-79
2023/12/02 11:45:27;;;;;;;24.33;20.33;;;6.00;99.90;;;;;;5075924;28;20047;-79
2023/12/02 11:48:24;;;;;;;24.48;20.15;;;6.10;99.90;;;;;;5088736;28;20044;-77
2023/12/02 11:51:02;;;;;;;24.15;19.33;;;6.20;99.90;;;;;;5091364;28;20036;-78
2023/12/02 11:54:09;;;;;;;23.95;20.33;;;5.90;99.90;;;;;;5091593;28;20509;-78
2023/12/02 11:56:38;;;;;;;24.20;20.00;;;6.30;99.90;;;;;;5075272;28;20074;-81
2023/12/02 11:59:27;;;;;;;24.38;20.67;;;6.10;99.90;;;;;;5075143;28;20036;-81
2023/12/02 12:02:32;;;;;;;25.65;21.63;;;5.80;99.90;;;;;;5079351;28;20041;-77
2023/12/02 12:05:08;;;;;;;23.58;19.35;;;6.50;99.90;;;;;;5079691;28;20036;-75
2023/12/02 12:08:09;;;;;;;25.13;20.30;;;6.00;99.90;;;;;;5081471;28;20624;-76
2023/12/02 12:10:37;;;;;;;24.83;19.90;;;6.30;99.90;;;;;;5030770;28;20098;-79
2023/12/02 12:13:04;;;;;;;24.65;19.65;;;5.60;99.90;;;;;;5070946;28;20075;-74
2023/12/02 12:15:30;;;;;;;24.50;19.50;;;5.30;99.90;;;;;;5079284;28;20531;-76
2023/12/02 12:17:56;;;;;;;25.05;21.00;;;5.80;99.90;;;;;;5090212;28;20047;-77
2023/12/02 12:20:27;;;;;;;25.83;21.05;;;5.30;99.90;;;;;;5072360;28;20040;-78
2023/12/02 12:22:53;;;;;;;28.98;21.90;;;5.20;99.90;;;;;;5073433;28;20130;-77
2023/12/02 12:25:19;;;;;;;28.00;22.02;;;5.40;99.90;;;;;;5085803;28;20663;-76
2023/12/02 12:27:45;;;;;;;30.27;25.15;;;6.00;99.90;;;;;;5046651;28;20042;-80
2023/12/02 12:30:11;;;;;;;30.83;24.38;;;5.50;99.90;;;;;;5073808;28;20050;-80
2023/12/02 12:32:38;;;;;;;31.65;23.17;;;5.10;99.90;;;;;;5084696;28;20528;-78
2023/12/02 12:35:12;;;;;;;30.13;24.15;;;6.00;99.90;;;;;;5073335;28;20032;-80
2023/12/02 12:37:41;;;;;;;27.77;22.63;;;5.80;99.90;;;;;;5090509;28;20089;-79
2023/12/02 12:40:13;;;;;;;28.55;23.55;;;5.50;99.90;;;;;;5055461;28;20340;-78
2023/12/02 12:42:49;;;;;;;27.83;22.70;;;5.40;99.90;;;;;;5072646;28;20036;-80
2023/12/02 12:45:15;;;;;;;27.83;22.55;;;5.50;99.90;;;;;;5069982;28;20523;-79
2023/12/02 12:47:45;;;;;;;28.70;21.58;;;5.50;99.90;;;;;;5067942;28;20040;-78
2023/12/02 12:50:12;;;;;;;24.83;19.13;;;6.40;99.90;;;;;;5069106;28;20044;-80